createdAt,value
2023-03-11T00:01:08.066Z,14.35
2023-03-11T00:03:35.010Z,14.07
2023-03-11T00:06:05.135Z,14.90
2023-03-11T00:08:33.404Z,10.27
2023-03-11T00:11:00.929Z,9.68
2023-03-11T00:13:31.444Z,10.23
2023-03-11T00:16:04.575Z,11.77
2023-03-11T00:18:31.856Z,8.18
2023-03-11T00:21:00.309Z,8.43
2023-03-11T00:23:28.154Z,11.55
2023-03-11T00:25:55.263Z,9.63
2023-03-11T00:28:34.351Z,9.32
2023-03-11T00:31:04.443Z,8.48
2023-03-11T00:33:31.818Z,11.00
2023-03-11T00:35:58.725Z,7.93
2023-03-11T00:38:25.636Z,14.68
2023-03-11T00:40:52.624Z,9.95
2023-03-11T00:43:19.555Z,8.63
2023-03-11T00:45:46.790Z,8.27
2023-03-11T00:48:14.716Z,7.68
2023-03-11T00:50:42.061Z,7.18
2023-03-11T00:53:14.041Z,7.07
2023-03-11T00:55:40.989Z,8.65
2023-03-11T00:58:14.132Z,7.70
2023-03-11T01:00:42.316Z,7.00
2023-03-11T01:03:10.011Z,10.63
2023-03-11T01:05:37.959Z,9.98
2023-03-11T01:08:07.793Z,7.85
2023-03-11T01:10:35.787Z,12.05
2023-03-11T01:13:04.606Z,11.70
2023-03-11T01:15:37.339Z,12.90
2023-03-11T01:18:05.947Z,11.55
2023-03-11T01:20:41.938Z,12.90
2023-03-11T01:23:09.784Z,12.35
2023-03-11T01:25:37.177Z,12.32
2023-03-11T01:28:04.860Z,9.80
2023-03-11T01:30:31.745Z,12.43
2023-03-11T01:32:59.019Z,7.22
2023-03-11T01:35:28.020Z,9.43
2023-03-11T01:37:55.153Z,7.87
2023-03-11T01:40:29.541Z,10.00
2023-03-11T01:42:59.393Z,7.22
2023-03-11T01:47:56.292Z,7.50
2023-03-11T01:50:27.568Z,7.60
2023-03-11T01:52:54.786Z,8.77
2023-03-11T01:55:22.318Z,6.03
2023-03-11T01:57:54.019Z,3.62
2023-03-11T02:00:21.797Z,4.43
2023-03-11T02:02:58.714Z,3.50
2023-03-11T02:05:28.964Z,4.65
2023-03-11T02:07:56.341Z,4.57
2023-03-11T02:10:23.386Z,5.43
2023-03-11T02:12:51.714Z,3.80
2023-03-11T02:15:19.007Z,4.35
2023-03-11T02:17:49.189Z,3.80
2023-03-11T02:20:52.681Z,5.03
2023-03-11T02:23:25.507Z,5.65
2023-03-11T02:26:15.757Z,2.70
2023-03-11T02:28:43.930Z,3.53
2023-03-11T02:31:16.353Z,3.62
2023-03-11T02:33:53.298Z,4.55
2023-03-11T02:36:41.113Z,4.35
2023-03-11T02:39:09.306Z,6.05
2023-03-11T02:41:40.502Z,5.65
2023-03-11T02:44:10.951Z,5.93
2023-03-11T02:46:41.907Z,4.93
2023-03-11T02:49:10.985Z,5.78
2023-03-11T02:51:37.848Z,9.70
2023-03-11T02:54:16.846Z,3.37
2023-03-11T02:56:44.113Z,2.03
2023-03-11T02:59:11.380Z,2.47
2023-03-11T03:01:38.440Z,1.50
2023-03-11T03:04:06.038Z,1.55
2023-03-11T03:06:33.312Z,2.10
2023-03-11T03:09:00.405Z,3.65
2023-03-11T03:11:46.600Z,4.28
2023-03-11T03:14:13.633Z,2.33
2023-03-11T03:16:45.166Z,2.40
2023-03-11T03:19:17.093Z,2.58
2023-03-11T03:21:50.020Z,4.97
2023-03-11T03:24:21.561Z,4.93
2023-03-11T03:26:49.086Z,4.53
2023-03-11T03:29:16.135Z,1.92
2023-03-11T03:31:43.114Z,3.83
2023-03-11T03:34:10.453Z,4.20
2023-03-11T03:36:37.438Z,4.12
2023-03-11T03:39:09.722Z,3.90
2023-03-11T03:41:37.181Z,4.45
2023-03-11T03:44:24.734Z,4.55
2023-03-11T03:46:52.090Z,2.92
2023-03-11T03:49:19.396Z,2.33
2023-03-11T03:51:46.390Z,1.65
2023-03-11T03:54:13.357Z,4.75
2023-03-11T03:56:40.337Z,2.40
2023-03-11T03:59:07.399Z,1.37
2023-03-11T04:01:34.297Z,0.82
2023-03-11T04:04:01.320Z,3.12
2023-03-11T04:06:28.693Z,1.90
2023-03-11T04:08:55.877Z,2.08
2023-03-11T04:13:52.299Z,1.70
2023-03-11T04:16:23.205Z,2.67
2023-03-11T04:18:51.570Z,1.65
2023-03-11T04:21:18.648Z,2.00
2023-03-11T04:23:45.788Z,1.83
2023-03-11T04:26:13.735Z,1.30
2023-03-11T04:28:41.521Z,0.55
2023-03-11T04:31:09.209Z,3.17
2023-03-11T04:33:56.196Z,2.55
2023-03-11T04:36:28.366Z,1.27
2023-03-11T04:39:01.351Z,3.37
2023-03-11T04:41:29.297Z,2.67
2023-03-11T04:43:56.317Z,2.12
2023-03-11T04:46:23.947Z,4.00
2023-03-11T04:48:53.152Z,1.37
2023-03-11T04:51:20.131Z,6.85
2023-03-11T04:53:47.672Z,3.25
2023-03-11T04:56:15.290Z,6.87
2023-03-11T04:58:42.850Z,4.93
2023-03-11T05:01:14.524Z,2.87
2023-03-11T05:03:42.060Z,1.50
2023-03-11T05:06:10.381Z,1.42
2023-03-11T05:08:37.482Z,4.90
2023-03-11T05:11:05.887Z,2.62
2023-03-11T05:13:34.210Z,2.45
2023-03-11T05:16:21.427Z,3.75
2023-03-11T05:18:51.472Z,4.03
2023-03-11T05:21:38.610Z,2.65
2023-03-11T05:24:05.791Z,3.20
2023-03-11T05:26:32.961Z,8.05
2023-03-11T05:29:00.140Z,4.53
2023-03-11T05:31:27.419Z,4.03
2023-03-11T05:33:59.070Z,3.30
2023-03-11T05:36:26.764Z,3.10
2023-03-11T05:38:54.302Z,2.62
2023-03-11T05:41:21.645Z,3.47
2023-03-11T05:43:49.957Z,1.45
2023-03-11T05:46:17.101Z,5.30
2023-03-11T05:48:47.658Z,2.22
2023-03-11T05:51:14.876Z,3.03
2023-03-11T05:53:48.973Z,3.67
2023-03-11T05:56:17.335Z,1.05
2023-03-11T05:58:45.596Z,1.23
2023-03-11T06:01:19.987Z,2.97
2023-03-11T06:03:51.676Z,1.77
2023-03-11T06:06:22.422Z,1.50
2023-03-11T06:08:53.584Z,1.10
2023-03-11T06:11:21.775Z,1.08
2023-03-11T06:13:48.984Z,0.60
2023-03-11T06:16:16.714Z,1.67
2023-03-11T06:18:44.105Z,0.62
2023-03-11T06:21:22.534Z,1.73
2023-03-11T06:23:54.174Z,1.92
2023-03-11T06:26:28.552Z,2.50
2023-03-11T06:28:57.841Z,2.00
2023-03-11T06:31:27.896Z,1.12
2023-03-11T06:33:59.940Z,1.65
2023-03-11T06:36:29.691Z,1.17
2023-03-11T06:38:57.450Z,1.00
2023-03-11T06:41:32.511Z,2.87
2023-03-11T06:44:00.667Z,3.35
2023-03-11T06:46:28.094Z,2.17
2023-03-11T06:48:57.308Z,1.60
2023-03-11T06:51:25.691Z,1.33
2023-03-11T06:53:53.751Z,1.27
2023-03-11T06:56:24.429Z,0.30
2023-03-11T06:58:51.751Z,1.70
2023-03-11T07:01:22.907Z,1.75
2023-03-11T07:03:52.871Z,1.25
2023-03-11T07:06:24.970Z,0.43
2023-03-11T07:08:53.636Z,2.20
2023-03-11T07:11:23.714Z,0.52
2023-03-11T07:13:51.455Z,0.62
2023-03-11T07:16:38.043Z,0.82
2023-03-11T07:19:05.200Z,0.37
2023-03-11T07:21:33.122Z,0.95
2023-03-11T07:24:07.133Z,0.62
2023-03-11T07:26:37.009Z,1.48
2023-03-11T07:29:04.732Z,0.75
2023-03-11T07:31:33.861Z,1.92
2023-03-11T07:34:05.306Z,1.48
2023-03-11T07:36:32.987Z,1.62
2023-03-11T07:39:05.133Z,2.42
2023-03-11T07:41:39.112Z,1.83
2023-03-11T07:44:09.857Z,1.00
2023-03-11T07:46:37.513Z,0.60
2023-03-11T07:49:04.967Z,0.68
2023-03-11T07:51:35.164Z,1.65
2023-03-11T07:54:03.251Z,0.68
2023-03-11T07:56:33.020Z,0.30
2023-03-11T07:59:01.404Z,0.95
2023-03-11T08:01:37.744Z,4.60
2023-03-11T08:04:07.405Z,1.77
2023-03-11T08:06:38.037Z,1.73
2023-03-11T08:09:09.533Z,0.90
2023-03-11T08:11:37.261Z,0.20
2023-03-11T08:14:04.812Z,1.55
2023-03-11T08:16:32.073Z,0.47
2023-03-11T08:19:02.145Z,1.33
2023-03-11T08:21:35.113Z,0.95
2023-03-11T08:24:07.740Z,0.47
2023-03-11T08:26:34.737Z,1.75
2023-03-11T08:29:02.844Z,2.10
2023-03-11T08:31:32.704Z,1.58
2023-03-11T08:36:29.535Z,1.40
2023-03-11T08:38:58.758Z,2.20
2023-03-11T08:41:26.239Z,2.40
2023-03-11T08:43:54.351Z,3.40
2023-03-11T08:46:33.554Z,1.33
2023-03-11T08:49:01.708Z,0.47
2023-03-11T08:51:30.450Z,1.33
2023-03-11T08:53:58.007Z,3.28
2023-03-11T08:56:26.662Z,0.40
2023-03-11T08:58:53.893Z,1.23
2023-03-11T09:01:21.024Z,0.93
2023-03-11T09:03:48.170Z,1.12
2023-03-11T09:06:19.531Z,0.62
2023-03-11T09:08:52.785Z,1.42
2023-03-11T09:11:23.093Z,2.75
2023-03-11T09:13:50.469Z,0.75
2023-03-11T09:16:23.391Z,1.35
2023-03-11T09:18:51.654Z,1.37
2023-03-11T09:21:20.452Z,4.95
2023-03-11T09:23:48.818Z,3.28
2023-03-11T09:26:16.367Z,2.15
2023-03-11T09:28:43.600Z,2.00
2023-03-11T09:31:10.790Z,5.50
2023-03-11T09:33:40.878Z,3.58
2023-03-11T09:36:12.667Z,2.53
2023-03-11T09:38:39.932Z,0.50
2023-03-11T09:41:23.683Z,2.58
2023-03-11T09:43:53.666Z,4.15
2023-03-11T09:46:29.812Z,1.50
2023-03-11T09:49:05.867Z,0.95
2023-03-11T09:51:43.907Z,2.35
2023-03-11T09:54:13.285Z,1.17
2023-03-11T09:56:44.540Z,1.02
2023-03-11T09:59:22.194Z,1.33
2023-03-11T10:01:51.665Z,1.35
2023-03-11T10:04:50.473Z,0.93
2023-03-11T10:07:22.549Z,3.22
2023-03-11T10:09:57.134Z,6.22
2023-03-11T10:12:57.514Z,2.62
2023-03-11T10:15:48.933Z,2.05
2023-03-11T10:18:37.482Z,1.55
2023-03-11T10:21:41.044Z,2.37
2023-03-11T10:24:46.151Z,1.55
2023-03-11T10:27:20.726Z,1.20
2023-03-11T10:30:26.359Z,1.52
2023-03-11T10:33:19.605Z,2.95
2023-03-11T10:35:53.067Z,2.37
2023-03-11T10:38:52.622Z,0.57
2023-03-11T10:41:49.892Z,1.95
2023-03-11T10:44:24.256Z,1.30
2023-03-11T10:46:51.382Z,1.67
2023-03-11T10:49:18.632Z,2.70
2023-03-11T10:51:49.693Z,1.80
2023-03-11T10:54:27.272Z,2.60
2023-03-11T10:57:26.557Z,1.30
2023-03-11T11:00:00.612Z,1.37
2023-03-11T11:02:50.161Z,1.77
2023-03-11T11:05:22.831Z,0.80
2023-03-11T11:08:26.611Z,2.53
2023-03-11T11:10:59.803Z,3.45
2023-03-11T11:13:34.805Z,1.52
2023-03-11T11:16:07.680Z,2.03
2023-03-11T11:18:42.897Z,1.55
2023-03-11T11:21:34.145Z,4.10
2023-03-11T11:24:12.725Z,3.60
2023-03-11T11:26:39.763Z,2.25
2023-03-11T11:29:09.024Z,3.40
2023-03-11T11:31:40.067Z,2.10
2023-03-11T11:34:29.801Z,2.97
2023-03-11T11:37:18.472Z,4.95
2023-03-11T11:40:17.300Z,2.83
2023-03-11T11:42:59.438Z,1.60
2023-03-11T11:45:54.419Z,2.00
2023-03-11T11:48:41.664Z,5.62
2023-03-11T11:51:56.111Z,2.33
2023-03-11T11:54:33.831Z,4.70
2023-03-11T11:57:09.459Z,2.08
2023-03-11T11:59:36.482Z,2.67
2023-03-11T12:02:26.272Z,2.65
2023-03-11T12:05:33.911Z,1.90
2023-03-11T12:08:14.184Z,3.08
2023-03-11T12:10:58.904Z,0.75
2023-03-11T12:14:06.222Z,1.37
2023-03-11T12:16:57.693Z,4.80
2023-03-11T12:19:30.340Z,3.83
2023-03-11T12:22:36.850Z,5.82
2023-03-11T12:25:06.830Z,2.75
2023-03-11T12:27:58.718Z,5.53
2023-03-11T12:30:33.083Z,3.12
2023-03-11T12:33:05.417Z,1.58
2023-03-11T12:35:36.150Z,3.03
2023-03-11T12:38:16.213Z,2.15
2023-03-11T12:40:51.606Z,2.15
2023-03-11T12:43:47.620Z,1.45
2023-03-11T12:46:36.256Z,1.17
2023-03-11T12:49:15.146Z,0.62
2023-03-11T12:52:02.395Z,1.30
2023-03-11T12:54:33.570Z,1.85
2023-03-11T12:57:23.839Z,1.98
2023-03-11T13:00:17.949Z,2.83
2023-03-11T13:03:23.916Z,2.00
2023-03-11T13:06:25.077Z,2.87
2023-03-11T13:08:55.162Z,1.67
2023-03-11T13:14:51.671Z,1.30
2023-03-11T13:17:32.612Z,2.95
2023-03-11T13:20:00.020Z,3.03
2023-03-11T13:23:05.629Z,1.90
2023-03-11T13:25:38.803Z,1.60
2023-03-11T13:28:14.631Z,2.20
2023-03-11T13:31:12.975Z,1.60
2023-03-11T13:33:50.012Z,1.60
2023-03-11T13:36:25.400Z,2.30
2023-03-11T13:38:58.964Z,2.83
2023-03-11T13:41:36.755Z,1.95
2023-03-11T13:44:23.067Z,4.40
2023-03-11T13:46:55.251Z,2.65
2023-03-11T13:49:48.465Z,1.25
2023-03-11T13:52:27.550Z,1.02
2023-03-11T13:55:15.321Z,2.58
2023-03-11T13:57:56.112Z,2.42
2023-03-11T14:00:26.338Z,1.85
2023-03-11T14:02:55.521Z,2.72
2023-03-11T14:05:37.926Z,2.63
2023-03-11T14:08:35.883Z,1.70
2023-03-11T14:11:15.173Z,2.62
2023-03-11T14:13:50.417Z,3.72
2023-03-11T14:16:35.657Z,1.95
2023-03-11T14:19:17.475Z,3.45
2023-03-11T14:21:46.838Z,0.70
2023-03-11T14:24:36.808Z,1.62
2023-03-11T14:27:10.695Z,2.30
2023-03-11T14:29:40.622Z,2.40
2023-03-11T14:34:54.923Z,1.00
2023-03-11T14:37:39.278Z,5.20
2023-03-11T14:40:29.882Z,0.88
2023-03-11T14:43:04.084Z,1.55
2023-03-11T14:45:34.274Z,2.92
2023-03-11T14:48:14.504Z,2.05
2023-03-11T14:50:49.480Z,0.80
2023-03-11T14:53:20.242Z,1.55
2023-03-11T14:55:59.062Z,1.08
2023-03-11T14:58:41.780Z,1.65
2023-03-11T15:01:26.779Z,1.85
2023-03-11T15:04:08.211Z,1.55
2023-03-11T15:06:38.491Z,3.10
2023-03-11T15:09:08.389Z,1.02
2023-03-11T15:14:51.145Z,1.02
2023-03-11T15:17:39.229Z,1.75
2023-03-11T15:20:31.466Z,1.00
2023-03-11T15:23:05.083Z,1.15
2023-03-11T15:25:39.009Z,2.12
2023-03-11T15:28:25.493Z,1.15
2023-03-11T15:31:21.489Z,1.25
2023-03-11T15:33:49.077Z,2.03
2023-03-11T15:36:27.996Z,2.97
2023-03-11T15:39:24.395Z,2.33
2023-03-11T15:42:06.593Z,3.92
2023-03-11T15:45:04.526Z,4.28
2023-03-11T15:47:31.861Z,4.62
2023-03-11T15:50:02.480Z,2.55
2023-03-11T15:52:29.387Z,3.87
2023-03-11T15:54:56.433Z,4.55
2023-03-11T15:57:36.769Z,5.22
2023-03-11T16:00:04.734Z,5.37
2023-03-11T16:02:32.816Z,3.08
2023-03-11T16:05:01.207Z,1.98
2023-03-11T16:07:39.283Z,3.53
2023-03-11T16:10:10.930Z,3.60
2023-03-11T16:12:38.186Z,3.03
2023-03-11T16:15:06.311Z,1.70
2023-03-11T16:17:48.902Z,2.53
2023-03-11T16:20:19.769Z,4.53
2023-03-11T16:25:29.616Z,5.65
2023-03-11T16:28:00.607Z,2.83
2023-03-11T16:30:30.122Z,4.28
2023-03-11T16:32:59.449Z,4.35
2023-03-11T16:35:27.107Z,6.25
2023-03-11T16:37:54.762Z,5.25
2023-03-11T16:40:27.644Z,4.80
2023-03-11T16:43:02.913Z,9.07
2023-03-11T16:45:30.141Z,7.07
2023-03-11T16:47:57.233Z,7.10
2023-03-11T16:50:25.541Z,6.72
2023-03-11T16:52:54.365Z,4.47
2023-03-11T16:55:21.373Z,6.25
2023-03-11T16:57:48.404Z,5.03
2023-03-11T17:00:18.311Z,4.97
2023-03-11T17:05:13.784Z,7.03
2023-03-11T17:07:43.204Z,8.82
2023-03-11T17:10:11.856Z,7.47
2023-03-11T17:12:39.117Z,6.18
2023-03-11T17:15:07.793Z,4.82
2023-03-11T17:17:34.756Z,7.82
2023-03-11T17:20:01.671Z,5.20
2023-03-11T17:22:30.667Z,5.45
2023-03-11T17:24:57.650Z,4.27
2023-03-11T17:27:24.589Z,7.53
2023-03-11T17:29:52.593Z,3.15
2023-03-11T17:32:21.692Z,5.80
2023-03-11T17:34:48.678Z,3.20
2023-03-11T17:37:15.621Z,4.70
2023-03-11T17:39:42.876Z,6.80
2023-03-11T17:42:09.932Z,5.72
2023-03-11T17:44:50.562Z,8.77
2023-03-11T17:47:21.905Z,5.00
2023-03-11T17:49:49.926Z,5.18
2023-03-11T17:52:17.572Z,5.12
2023-03-11T17:54:45.656Z,2.45
2023-03-11T17:57:14.055Z,5.12
2023-03-11T17:59:43.257Z,3.80
2023-03-11T18:02:14.700Z,4.75
2023-03-11T18:04:46.512Z,4.85
2023-03-11T18:07:13.664Z,8.45
2023-03-11T18:09:41.667Z,4.97
2023-03-11T18:12:11.010Z,6.47
2023-03-11T18:14:38.460Z,7.50
2023-03-11T18:17:05.969Z,6.80
2023-03-11T18:19:34.500Z,3.33
2023-03-11T18:22:01.638Z,6.53
2023-03-11T18:24:41.387Z,3.15
2023-03-11T18:27:11.308Z,6.75
2023-03-11T18:29:39.605Z,6.25
2023-03-11T18:32:11.243Z,3.90
2023-03-11T18:34:39.010Z,5.32
2023-03-11T18:37:26.894Z,5.57
2023-03-11T18:40:14.296Z,6.57
2023-03-11T18:42:42.180Z,3.30
2023-03-11T18:45:12.391Z,3.90
2023-03-11T18:47:39.437Z,3.08
2023-03-11T18:50:06.649Z,3.62
2023-03-11T18:52:33.550Z,4.15
2023-03-11T18:55:00.400Z,2.83
2023-03-11T18:57:27.401Z,9.23
2023-03-11T18:59:54.615Z,5.12
2023-03-11T19:02:21.566Z,3.95
2023-03-11T19:04:48.504Z,6.05
2023-03-11T19:07:15.526Z,5.15
2023-03-11T19:09:42.465Z,5.70
2023-03-11T19:12:09.891Z,5.97
2023-03-11T19:14:38.115Z,4.80
2023-03-11T19:17:06.234Z,5.55
2023-03-11T19:19:37.835Z,4.28
2023-03-11T19:22:06.103Z,4.82
2023-03-11T19:24:33.088Z,3.12
2023-03-11T19:27:02.507Z,4.57
2023-03-11T19:29:34.537Z,8.65
2023-03-11T19:32:03.551Z,3.55
2023-03-11T19:34:33.479Z,5.50
2023-03-11T19:37:00.482Z,3.80
2023-03-11T19:39:27.645Z,3.90
2023-03-11T19:41:55.749Z,5.43
2023-03-11T19:44:22.880Z,4.03
2023-03-11T19:46:50.161Z,5.75
2023-03-11T19:49:17.589Z,5.97
2023-03-11T19:51:50.180Z,9.18
2023-03-11T19:54:20.117Z,5.40
2023-03-11T19:56:49.027Z,10.48
2023-03-11T19:59:20.107Z,14.00
2023-03-11T20:01:47.841Z,10.10
2023-03-11T20:04:15.623Z,10.25
2023-03-11T20:06:44.892Z,6.97
2023-03-11T20:09:13.218Z,6.93
2023-03-11T20:11:42.327Z,14.48
2023-03-11T20:14:10.878Z,9.80
2023-03-11T20:16:41.068Z,8.88
2023-03-11T20:19:11.107Z,7.93
2023-03-11T20:21:43.887Z,4.72
2023-03-11T20:24:14.703Z,4.87
2023-03-11T20:26:43.977Z,6.93
2023-03-11T20:29:14.100Z,12.20
2023-03-11T20:31:41.260Z,4.75
2023-03-11T20:34:13.422Z,5.20
2023-03-11T20:36:40.699Z,9.80
2023-03-11T20:39:10.307Z,21.37
2023-03-11T20:41:41.562Z,7.78
2023-03-11T20:44:11.443Z,8.85
2023-03-11T20:49:05.735Z,3.97
2023-03-11T20:51:32.984Z,4.53
2023-03-11T20:54:00.259Z,2.70
2023-03-11T20:56:27.781Z,4.70
2023-03-11T20:58:59.505Z,3.85
2023-03-11T21:01:36.874Z,6.28
2023-03-11T21:04:04.347Z,3.90
2023-03-11T21:06:37.266Z,4.50
2023-03-11T21:09:11.317Z,3.55
2023-03-11T21:11:39.233Z,3.75
2023-03-11T21:14:10.051Z,4.10
2023-03-11T21:16:40.164Z,4.45
2023-03-11T21:19:09.160Z,8.25
2023-03-11T21:21:36.690Z,13.27
2023-03-11T21:24:04.191Z,7.85
2023-03-11T21:26:31.518Z,9.55
2023-03-11T21:28:58.799Z,8.88
2023-03-11T21:31:29.783Z,7.47
2023-03-11T21:34:01.266Z,5.95
2023-03-11T21:36:29.715Z,6.97
2023-03-11T21:38:57.248Z,8.90
2023-03-11T21:41:27.046Z,8.27
2023-03-11T21:43:56.837Z,9.65
2023-03-11T21:46:33.413Z,8.68
2023-03-11T21:49:06.313Z,11.10
2023-03-11T21:51:34.239Z,7.72
2023-03-11T21:54:04.244Z,7.57
2023-03-11T21:56:32.591Z,6.70
2023-03-11T21:58:59.878Z,8.77
2023-03-11T22:01:26.971Z,7.78
2023-03-11T22:04:13.917Z,6.65
2023-03-11T22:06:41.760Z,8.18
2023-03-11T22:09:08.820Z,14.68
2023-03-11T22:11:38.038Z,9.57
2023-03-11T22:14:05.919Z,8.75
2023-03-11T22:16:33.643Z,6.70
2023-03-11T22:19:01.542Z,5.95
2023-03-11T22:21:28.844Z,7.85
2023-03-11T22:23:55.791Z,7.80
2023-03-11T22:26:28.349Z,11.15
2023-03-11T22:28:59.811Z,7.60
2023-03-11T22:31:27.409Z,5.87
2023-03-11T22:33:54.359Z,9.68
2023-03-11T22:36:21.444Z,5.15
2023-03-11T22:38:48.766Z,7.18
2023-03-11T22:41:19.904Z,6.07
2023-03-11T22:43:49.206Z,6.55
2023-03-11T22:46:17.163Z,6.22
2023-03-11T22:48:44.911Z,11.15
2023-03-11T22:51:12.043Z,8.50
2023-03-11T22:53:39.040Z,9.93
2023-03-11T22:56:13.031Z,17.12
2023-03-11T22:58:40.539Z,12.23
2023-03-11T23:01:09.071Z,13.40
2023-03-11T23:03:36.758Z,12.48
2023-03-11T23:06:07.378Z,10.25
2023-03-11T23:08:35.005Z,7.30
2023-03-11T23:11:04.359Z,7.72
2023-03-11T23:13:32.586Z,9.80
2023-03-11T23:16:08.342Z,8.32
2023-03-11T23:18:36.139Z,9.25
2023-03-11T23:21:03.218Z,9.32
2023-03-11T23:23:30.847Z,8.90
2023-03-11T23:25:57.968Z,8.38
2023-03-11T23:28:24.936Z,7.68
2023-03-11T23:30:51.963Z,11.10
2023-03-11T23:33:18.954Z,9.05
2023-03-11T23:35:45.878Z,8.77
2023-03-11T23:38:12.896Z,10.88
2023-03-11T23:40:41.351Z,12.68
2023-03-11T23:43:08.688Z,14.82
2023-03-11T23:45:35.749Z,11.10
2023-03-11T23:48:02.627Z,12.15
2023-03-11T23:50:29.657Z,11.10
2023-03-11T23:52:56.833Z,16.15
2023-03-11T23:55:23.808Z,16.75
2023-03-11T23:57:50.787Z,18.60
